Chia-i, Taiwan
Current Conditions -  °F | °C
As of 6:00 AM on Wednesday 26 Nov 2014 (Local Time) from RCMQ Reporting Station
Haze Haze  
Wind Chill: 17°   Ceiling: Unl
Heat Index: 17°   Visibility: 1.7mi
Dew Point: 15°   Wind: 8mph
Humidity: 88%   Direction: 360°N
Pressure: 29.91"   Gusts: NA
Location:  23.48°N, 120.44°E
Report Text: RCMQ 252200Z 36007KT 2800 BR FEW010 SCT050 17/15 Q1013 NOSIG RMK A2993
Loading
Personal Weather Stations






























Interactive Weather Map New forecast layout! Learn more

10-Day Weather Forecast

Advertisements
Track Severe Weather on mobile